sensor_id;sensor_type;location;lat;lon;timestamp;P1;durP1;ratioP1;P2;durP2;ratioP2
38302;SDS011;24103;42.454;27.400;2023-06-14T00:01:17;5.63;;;4.30;;
38302;SDS011;24103;42.454;27.400;2023-06-14T00:03:45;4.10;;;3.50;;
38302;SDS011;24103;42.454;27.400;2023-06-14T00:06:12;6.65;;;3.83;;
38302;SDS011;24103;42.454;27.400;2023-06-14T00:08:38;7.93;;;4.18;;
38302;SDS011;24103;42.454;27.400;2023-06-14T00:11:04;3.75;;;3.45;;
38302;SDS011;24103;42.454;27.400;2023-06-14T00:13:30;4.35;;;3.20;;
38302;SDS011;24103;42.454;27.400;2023-06-14T00:15:56;3.92;;;3.63;;
38302;SDS011;24103;42.454;27.400;2023-06-14T00:18:21;3.70;;;3.30;;
38302;SDS011;24103;42.454;27.400;2023-06-14T00:20:49;5.60;;;3.30;;
38302;SDS011;24103;42.454;27.400;2023-06-14T00:23:15;3.25;;;3.05;;
38302;SDS011;24103;42.454;27.400;2023-06-14T00:25:40;4.35;;;3.95;;
38302;SDS011;24103;42.454;27.400;2023-06-14T00:28:05;5.43;;;3.08;;
38302;SDS011;24103;42.454;27.400;2023-06-14T00:30:31;5.00;;;4.00;;
38302;SDS011;24103;42.454;27.400;2023-06-14T00:32:56;3.80;;;3.50;;
38302;SDS011;24103;42.454;27.400;2023-06-14T00:35:23;4.15;;;3.42;;
38302;SDS011;24103;42.454;27.400;2023-06-14T00:37:49;3.60;;;3.20;;
38302;SDS011;24103;42.454;27.400;2023-06-14T00:40:14;3.90;;;3.50;;
38302;SDS011;24103;42.454;27.400;2023-06-14T00:42:40;4.45;;;4.07;;
38302;SDS011;24103;42.454;27.400;2023-06-14T00:45:05;5.07;;;3.42;;
38302;SDS011;24103;42.454;27.400;2023-06-14T00:47:31;3.60;;;3.30;;
38302;SDS011;24103;42.454;27.400;2023-06-14T00:49:57;3.78;;;3.40;;
38302;SDS011;24103;42.454;27.400;2023-06-14T00:52:23;3.47;;;3.20;;
38302;SDS011;24103;42.454;27.400;2023-06-14T00:54:50;4.35;;;3.63;;
38302;SDS011;24103;42.454;27.400;2023-06-14T00:57:15;3.30;;;3.00;;
38302;SDS011;24103;42.454;27.400;2023-06-14T00:59:43;4.97;;;3.97;;
38302;SDS011;24103;42.454;27.400;2023-06-14T01:02:09;6.15;;;3.80;;
38302;SDS011;24103;42.454;27.400;2023-06-14T01:04:36;4.18;;;3.78;;
38302;SDS011;24103;42.454;27.400;2023-06-14T01:09:48;4.53;;;4.18;;
38302;SDS011;24103;42.454;27.400;2023-06-14T01:12:35;4.10;;;3.75;;
38302;SDS011;24103;42.454;27.400;2023-06-14T01:15:10;4.25;;;3.85;;
38302;SDS011;24103;42.454;27.400;2023-06-14T01:17:37;4.53;;;3.58;;
38302;SDS011;24103;42.454;27.400;2023-06-14T01:20:07;4.25;;;3.47;;
38302;SDS011;24103;42.454;27.400;2023-06-14T01:22:35;3.92;;;3.58;;
38302;SDS011;24103;42.454;27.400;2023-06-14T01:25:01;4.35;;;3.95;;
38302;SDS011;24103;42.454;27.400;2023-06-14T01:27:26;4.53;;;3.72;;
38302;SDS011;24103;42.454;27.400;2023-06-14T01:29:54;4.70;;;3.97;;
38302;SDS011;24103;42.454;27.400;2023-06-14T01:32:22;6.15;;;4.70;;
38302;SDS011;24103;42.454;27.400;2023-06-14T01:34:51;6.30;;;5.68;;
38302;SDS011;24103;42.454;27.400;2023-06-14T01:37:17;5.88;;;5.38;;
38302;SDS011;24103;42.454;27.400;2023-06-14T01:39:43;6.07;;;5.00;;
38302;SDS011;24103;42.454;27.400;2023-06-14T01:42:10;5.35;;;4.85;;
38302;SDS011;24103;42.454;27.400;2023-06-14T01:44:37;5.35;;;4.75;;
38302;SDS011;24103;42.454;27.400;2023-06-14T01:47:03;5.78;;;5.28;;
38302;SDS011;24103;42.454;27.400;2023-06-14T01:49:28;6.18;;;5.40;;
38302;SDS011;24103;42.454;27.400;2023-06-14T01:51:54;7.05;;;6.00;;
38302;SDS011;24103;42.454;27.400;2023-06-14T01:54:19;5.85;;;5.35;;
38302;SDS011;24103;42.454;27.400;2023-06-14T01:56:46;5.18;;;4.68;;
38302;SDS011;24103;42.454;27.400;2023-06-14T01:59:12;6.53;;;5.90;;
38302;SDS011;24103;42.454;27.400;2023-06-14T02:01:37;6.70;;;6.10;;
38302;SDS011;24103;42.454;27.400;2023-06-14T02:04:03;8.18;;;5.57;;
38302;SDS011;24103;42.454;27.400;2023-06-14T02:06:28;6.38;;;5.85;;
38302;SDS011;24103;42.454;27.400;2023-06-14T02:08:54;6.95;;;6.25;;
38302;SDS011;24103;42.454;27.400;2023-06-14T02:11:19;6.88;;;6.00;;
38302;SDS011;24103;42.454;27.400;2023-06-14T02:13:45;6.60;;;6.10;;
38302;SDS011;24103;42.454;27.400;2023-06-14T02:16:10;6.43;;;5.75;;
38302;SDS011;24103;42.454;27.400;2023-06-14T02:18:36;5.35;;;4.85;;
38302;SDS011;24103;42.454;27.400;2023-06-14T02:21:01;6.78;;;6.05;;
38302;SDS011;24103;42.454;27.400;2023-06-14T02:23:27;7.38;;;5.95;;
38302;SDS011;24103;42.454;27.400;2023-06-14T02:25:52;5.97;;;5.45;;
38302;SDS011;24103;42.454;27.400;2023-06-14T02:28:18;7.60;;;5.80;;
38302;SDS011;24103;42.454;27.400;2023-06-14T02:30:43;5.93;;;5.32;;
38302;SDS011;24103;42.454;27.400;2023-06-14T02:33:09;4.72;;;4.32;;
38302;SDS011;24103;42.454;27.400;2023-06-14T02:35:37;5.95;;;5.05;;
38302;SDS011;24103;42.454;27.400;2023-06-14T02:38:03;5.20;;;4.78;;
38302;SDS011;24103;42.454;27.400;2023-06-14T02:40:31;5.47;;;4.97;;
38302;SDS011;24103;42.454;27.400;2023-06-14T02:42:56;6.28;;;5.18;;
38302;SDS011;24103;42.454;27.400;2023-06-14T02:45:21;6.68;;;5.07;;
38302;SDS011;24103;42.454;27.400;2023-06-14T02:47:47;6.72;;;5.00;;
38302;SDS011;24103;42.454;27.400;2023-06-14T02:50:13;5.63;;;4.68;;
38302;SDS011;24103;42.454;27.400;2023-06-14T02:52:38;5.30;;;4.80;;
38302;SDS011;24103;42.454;27.400;2023-06-14T02:55:06;7.38;;;4.80;;
38302;SDS011;24103;42.454;27.400;2023-06-14T02:57:33;4.05;;;3.75;;
38302;SDS011;24103;42.454;27.400;2023-06-14T02:59:58;6.90;;;5.20;;
38302;SDS011;24103;42.454;27.400;2023-06-14T03:02:24;6.35;;;5.05;;
38302;SDS011;24103;42.454;27.400;2023-06-14T03:04:49;5.32;;;4.43;;
38302;SDS011;24103;42.454;27.400;2023-06-14T03:07:15;4.97;;;3.92;;
38302;SDS011;24103;42.454;27.400;2023-06-14T03:09:44;3.97;;;3.67;;
38302;SDS011;24103;42.454;27.400;2023-06-14T03:12:10;3.92;;;3.53;;
38302;SDS011;24103;42.454;27.400;2023-06-14T03:14:36;3.50;;;3.20;;
38302;SDS011;24103;42.454;27.400;2023-06-14T03:17:02;5.00;;;2.92;;
38302;SDS011;24103;42.454;27.400;2023-06-14T03:19:29;4.88;;;3.22;;
38302;SDS011;24103;42.454;27.400;2023-06-14T03:21:55;4.53;;;2.72;;
38302;SDS011;24103;42.454;27.400;2023-06-14T03:24:23;3.55;;;2.78;;
38302;SDS011;24103;42.454;27.400;2023-06-14T03:26:49;7.38;;;3.03;;
38302;SDS011;24103;42.454;27.400;2023-06-14T03:29:15;5.15;;;2.50;;
38302;SDS011;24103;42.454;27.400;2023-06-14T03:31:55;4.10;;;2.50;;
38302;SDS011;24103;42.454;27.400;2023-06-14T03:34:23;3.40;;;2.10;;
38302;SDS011;24103;42.454;27.400;2023-06-14T03:36:48;4.25;;;2.88;;
38302;SDS011;24103;42.454;27.400;2023-06-14T03:39:14;2.28;;;2.08;;
38302;SDS011;24103;42.454;27.400;2023-06-14T03:41:40;3.05;;;1.90;;
38302;SDS011;24103;42.454;27.400;2023-06-14T03:44:05;4.65;;;2.15;;
38302;SDS011;24103;42.454;27.400;2023-06-14T03:46:31;4.03;;;2.30;;
38302;SDS011;24103;42.454;27.400;2023-06-14T03:48:56;3.75;;;2.08;;
38302;SDS011;24103;42.454;27.400;2023-06-14T03:51:22;4.88;;;2.08;;
38302;SDS011;24103;42.454;27.400;2023-06-14T03:53:47;3.92;;;1.48;;
38302;SDS011;24103;42.454;27.400;2023-06-14T03:56:13;2.83;;;1.40;;
38302;SDS011;24103;42.454;27.400;2023-06-14T03:58:38;1.77;;;1.52;;
38302;SDS011;24103;42.454;27.400;2023-06-14T04:01:04;1.92;;;1.42;;
38302;SDS011;24103;42.454;27.400;2023-06-14T04:03:32;4.25;;;1.70;;
38302;SDS011;24103;42.454;27.400;2023-06-14T04:06:00;2.53;;;1.67;;
38302;SDS011;24103;42.454;27.400;2023-06-14T04:08:25;1.17;;;1.05;;
38302;SDS011;24103;42.454;27.400;2023-06-14T04:10:51;2.92;;;1.50;;
38302;SDS011;24103;42.454;27.400;2023-06-14T04:13:16;6.50;;;2.50;;
38302;SDS011;24103;42.454;27.400;2023-06-14T04:15:42;2.78;;;2.13;;
38302;SDS011;24103;42.454;27.400;2023-06-14T04:18:10;1.50;;;1.40;;
38302;SDS011;24103;42.454;27.400;2023-06-14T04:20:36;3.47;;;1.50;;
38302;SDS011;24103;42.454;27.400;2023-06-14T04:23:11;3.05;;;1.70;;
38302;SDS011;24103;42.454;27.400;2023-06-14T04:25:38;2.60;;;1.67;;
38302;SDS011;24103;42.454;27.400;2023-06-14T04:28:03;4.07;;;1.95;;
38302;SDS011;24103;42.454;27.400;2023-06-14T04:30:30;3.28;;;1.80;;
38302;SDS011;24103;42.454;27.400;2023-06-14T04:32:56;8.05;;;2.47;;
38302;SDS011;24103;42.454;27.400;2023-06-14T04:35:22;4.20;;;1.60;;
38302;SDS011;24103;42.454;27.400;2023-06-14T04:37:50;4.00;;;1.60;;
38302;SDS011;24103;42.454;27.400;2023-06-14T04:40:16;8.15;;;1.77;;
38302;SDS011;24103;42.454;27.400;2023-06-14T04:42:41;3.28;;;1.67;;
38302;SDS011;24103;42.454;27.400;2023-06-14T04:45:09;4.53;;;1.80;;
38302;SDS011;24103;42.454;27.400;2023-06-14T04:47:36;6.72;;;1.83;;
38302;SDS011;24103;42.454;27.400;2023-06-14T04:50:02;5.97;;;1.50;;
38302;SDS011;24103;42.454;27.400;2023-06-14T04:52:28;7.40;;;1.70;;
38302;SDS011;24103;42.454;27.400;2023-06-14T04:54:55;4.70;;;1.60;;
38302;SDS011;24103;42.454;27.400;2023-06-14T04:57:21;4.55;;;1.83;;
38302;SDS011;24103;42.454;27.400;2023-06-14T04:59:47;1.38;;;1.10;;
38302;SDS011;24103;42.454;27.400;2023-06-14T05:02:13;3.50;;;1.50;;
38302;SDS011;24103;42.454;27.400;2023-06-14T05:04:39;1.38;;;1.27;;
38302;SDS011;24103;42.454;27.400;2023-06-14T05:07:08;1.25;;;1.05;;
38302;SDS011;24103;42.454;27.400;2023-06-14T05:09:34;5.32;;;1.95;;
38302;SDS011;24103;42.454;27.400;2023-06-14T05:12:00;2.78;;;1.70;;
38302;SDS011;24103;42.454;27.400;2023-06-14T05:14:26;3.78;;;1.50;;
38302;SDS011;24103;42.454;27.400;2023-06-14T05:16:52;2.22;;;1.35;;
38302;SDS011;24103;42.454;27.400;2023-06-14T05:19:18;5.55;;;1.65;;
38302;SDS011;24103;42.454;27.400;2023-06-14T05:21:45;3.00;;;1.45;;
38302;SDS011;24103;42.454;27.400;2023-06-14T05:24:12;2.92;;;1.10;;
38302;SDS011;24103;42.454;27.400;2023-06-14T05:26:38;2.33;;;1.00;;
38302;SDS011;24103;42.454;27.400;2023-06-14T05:29:04;2.00;;;0.98;;
38302;SDS011;24103;42.454;27.400;2023-06-14T05:31:29;2.28;;;1.08;;
38302;SDS011;24103;42.454;27.400;2023-06-14T05:33:55;3.80;;;0.70;;
38302;SDS011;24103;42.454;27.400;2023-06-14T05:36:20;1.00;;;0.88;;
38302;SDS011;24103;42.454;27.400;2023-06-14T05:38:48;1.70;;;0.90;;
38302;SDS011;24103;42.454;27.400;2023-06-14T05:41:15;1.17;;;0.73;;
38302;SDS011;24103;42.454;27.400;2023-06-14T05:43:41;2.33;;;1.42;;
38302;SDS011;24103;42.454;27.400;2023-06-14T05:46:06;1.85;;;0.90;;
38302;SDS011;24103;42.454;27.400;2023-06-14T05:48:32;2.92;;;1.02;;
38302;SDS011;24103;42.454;27.400;2023-06-14T05:50:58;2.10;;;1.23;;
38302;SDS011;24103;42.454;27.400;2023-06-14T05:53:24;3.03;;;1.17;;
38302;SDS011;24103;42.454;27.400;2023-06-14T05:55:50;1.05;;;0.95;;
38302;SDS011;24103;42.454;27.400;2023-06-14T05:58:20;0.85;;;0.80;;
38302;SDS011;24103;42.454;27.400;2023-06-14T06:00:45;1.20;;;1.10;;
38302;SDS011;24103;42.454;27.400;2023-06-14T06:03:11;3.83;;;1.30;;
38302;SDS011;24103;42.454;27.400;2023-06-14T06:05:38;0.93;;;0.80;;
38302;SDS011;24103;42.454;27.400;2023-06-14T06:08:04;2.53;;;1.10;;
38302;SDS011;24103;42.454;27.400;2023-06-14T06:10:29;1.00;;;0.90;;
38302;SDS011;24103;42.454;27.400;2023-06-14T06:12:55;1.02;;;0.98;;
38302;SDS011;24103;42.454;27.400;2023-06-14T06:15:21;1.67;;;0.95;;
38302;SDS011;24103;42.454;27.400;2023-06-14T06:17:46;3.20;;;1.13;;
38302;SDS011;24103;42.454;27.400;2023-06-14T06:20:12;0.90;;;0.90;;
38302;SDS011;24103;42.454;27.400;2023-06-14T06:22:37;1.58;;;1.00;;
38302;SDS011;24103;42.454;27.400;2023-06-14T06:25:03;3.17;;;1.05;;
38302;SDS011;24103;42.454;27.400;2023-06-14T06:27:29;1.55;;;1.30;;
38302;SDS011;24103;42.454;27.400;2023-06-14T06:29:55;1.10;;;1.00;;
38302;SDS011;24103;42.454;27.400;2023-06-14T06:35:12;1.17;;;1.02;;
38302;SDS011;24103;42.454;27.400;2023-06-14T06:37:38;3.35;;;1.40;;
38302;SDS011;24103;42.454;27.400;2023-06-14T06:40:04;1.85;;;1.25;;
38302;SDS011;24103;42.454;27.400;2023-06-14T06:42:31;2.00;;;1.40;;
38302;SDS011;24103;42.454;27.400;2023-06-14T06:44:57;1.27;;;1.17;;
38302;SDS011;24103;42.454;27.400;2023-06-14T06:47:22;1.20;;;1.10;;
38302;SDS011;24103;42.454;27.400;2023-06-14T06:49:48;2.78;;;1.73;;
38302;SDS011;24103;42.454;27.400;2023-06-14T06:52:13;3.00;;;1.20;;
38302;SDS011;24103;42.454;27.400;2023-06-14T06:54:39;3.38;;;2.20;;
38302;SDS011;24103;42.454;27.400;2023-06-14T06:57:05;2.58;;;1.73;;
38302;SDS011;24103;42.454;27.400;2023-06-14T06:59:31;3.30;;;1.90;;
38302;SDS011;24103;42.454;27.400;2023-06-14T07:01:56;2.20;;;1.88;;
38302;SDS011;24103;42.454;27.400;2023-06-14T07:04:22;3.45;;;1.08;;
38302;SDS011;24103;42.454;27.400;2023-06-14T07:06:47;2.03;;;1.80;;
38302;SDS011;24103;42.454;27.400;2023-06-14T07:09:13;2.20;;;1.50;;
38302;SDS011;24103;42.454;27.400;2023-06-14T07:11:40;1.67;;;1.58;;
38302;SDS011;24103;42.454;27.400;2023-06-14T07:14:07;1.50;;;1.05;;
38302;SDS011;24103;42.454;27.400;2023-06-14T07:16:33;3.58;;;1.65;;
38302;SDS011;24103;42.454;27.400;2023-06-14T07:18:58;4.25;;;3.10;;
38302;SDS011;24103;42.454;27.400;2023-06-14T07:21:24;4.38;;;2.80;;
38302;SDS011;24103;42.454;27.400;2023-06-14T07:23:51;3.92;;;3.35;;
38302;SDS011;24103;42.454;27.400;2023-06-14T07:26:17;4.35;;;2.63;;
38302;SDS011;24103;42.454;27.400;2023-06-14T07:28:43;3.00;;;2.33;;
38302;SDS011;24103;42.454;27.400;2023-06-14T07:31:10;2.88;;;2.20;;
38302;SDS011;24103;42.454;27.400;2023-06-14T07:33:36;2.72;;;1.85;;
38302;SDS011;24103;42.454;27.400;2023-06-14T07:36:02;3.03;;;1.92;;
38302;SDS011;24103;42.454;27.400;2023-06-14T07:38:27;4.85;;;2.67;;
38302;SDS011;24103;42.454;27.400;2023-06-14T07:40:53;3.17;;;2.80;;
38302;SDS011;24103;42.454;27.400;2023-06-14T07:43:19;2.35;;;1.98;;
38302;SDS011;24103;42.454;27.400;2023-06-14T07:45:44;2.33;;;1.83;;
38302;SDS011;24103;42.454;27.400;2023-06-14T07:48:10;3.17;;;1.55;;
38302;SDS011;24103;42.454;27.400;2023-06-14T07:50:36;3.10;;;1.73;;
38302;SDS011;24103;42.454;27.400;2023-06-14T07:53:01;1.83;;;1.40;;
38302;SDS011;24103;42.454;27.400;2023-06-14T07:55:27;4.18;;;2.00;;
38302;SDS011;24103;42.454;27.400;2023-06-14T07:57:53;3.03;;;1.58;;
38302;SDS011;24103;42.454;27.400;2023-06-14T08:00:19;2.03;;;1.25;;
38302;SDS011;24103;42.454;27.400;2023-06-14T08:02:45;5.90;;;1.63;;
38302;SDS011;24103;42.454;27.400;2023-06-14T08:05:11;4.03;;;1.40;;
38302;SDS011;24103;42.454;27.400;2023-06-14T08:07:38;3.10;;;1.15;;
38302;SDS011;24103;42.454;27.400;2023-06-14T08:10:05;2.72;;;1.52;;
38302;SDS011;24103;42.454;27.400;2023-06-14T08:12:31;1.55;;;1.17;;
38302;SDS011;24103;42.454;27.400;2023-06-14T08:14:57;2.88;;;1.13;;
38302;SDS011;24103;42.454;27.400;2023-06-14T08:17:22;2.72;;;1.45;;
38302;SDS011;24103;42.454;27.400;2023-06-14T08:19:48;3.80;;;1.33;;
38302;SDS011;24103;42.454;27.400;2023-06-14T08:22:13;2.42;;;1.80;;
38302;SDS011;24103;42.454;27.400;2023-06-14T08:24:39;1.70;;;1.35;;
38302;SDS011;24103;42.454;27.400;2023-06-14T08:27:06;3.28;;;1.40;;
38302;SDS011;24103;42.454;27.400;2023-06-14T08:29:32;2.70;;;1.40;;
38302;SDS011;24103;42.454;27.400;2023-06-14T08:31:57;2.35;;;1.30;;
38302;SDS011;24103;42.454;27.400;2023-06-14T08:34:23;2.60;;;1.40;;
38302;SDS011;24103;42.454;27.400;2023-06-14T08:36:50;1.67;;;1.58;;
38302;SDS011;24103;42.454;27.400;2023-06-14T08:39:16;5.15;;;2.22;;
38302;SDS011;24103;42.454;27.400;2023-06-14T08:41:42;2.65;;;1.42;;
38302;SDS011;24103;42.454;27.400;2023-06-14T08:44:10;2.13;;;1.67;;
38302;SDS011;24103;42.454;27.400;2023-06-14T08:46:36;1.88;;;1.70;;
38302;SDS011;24103;42.454;27.400;2023-06-14T08:49:02;2.60;;;1.33;;
38302;SDS011;24103;42.454;27.400;2023-06-14T08:51:31;1.58;;;1.48;;
38302;SDS011;24103;42.454;27.400;2023-06-14T08:54:02;1.65;;;1.50;;
38302;SDS011;24103;42.454;27.400;2023-06-14T08:56:29;3.25;;;1.40;;
38302;SDS011;24103;42.454;27.400;2023-06-14T08:58:56;2.05;;;1.50;;
38302;SDS011;24103;42.454;27.400;2023-06-14T09:01:25;1.63;;;1.52;;
38302;SDS011;24103;42.454;27.400;2023-06-14T09:03:51;2.47;;;1.45;;
38302;SDS011;24103;42.454;27.400;2023-06-14T09:06:20;2.88;;;1.83;;
38302;SDS011;24103;42.454;27.400;2023-06-14T09:08:48;2.15;;;1.60;;
38302;SDS011;24103;42.454;27.400;2023-06-14T09:11:14;2.10;;;1.20;;
38302;SDS011;24103;42.454;27.400;2023-06-14T09:13:44;1.30;;;1.05;;
38302;SDS011;24103;42.454;27.400;2023-06-14T09:16:10;1.73;;;1.63;;
38302;SDS011;24103;42.454;27.400;2023-06-14T09:18:39;1.67;;;1.13;;
38302;SDS011;24103;42.454;27.400;2023-06-14T09:21:09;2.97;;;1.60;;
38302;SDS011;24103;42.454;27.400;2023-06-14T09:23:39;3.53;;;1.65;;
38302;SDS011;24103;42.454;27.400;2023-06-14T09:26:15;3.72;;;1.50;;
38302;SDS011;24103;42.454;27.400;2023-06-14T09:28:43;1.52;;;1.38;;
38302;SDS011;24103;42.454;27.400;2023-06-14T09:31:10;2.40;;;1.17;;
38302;SDS011;24103;42.454;27.400;2023-06-14T09:33:36;2.90;;;1.52;;
38302;SDS011;24103;42.454;27.400;2023-06-14T09:36:03;3.33;;;1.33;;
38302;SDS011;24103;42.454;27.400;2023-06-14T09:38:30;3.35;;;1.73;;
38302;SDS011;24103;42.454;27.400;2023-06-14T09:40:56;2.20;;;1.40;;
38302;SDS011;24103;42.454;27.400;2023-06-14T09:43:23;2.38;;;1.25;;
38302;SDS011;24103;42.454;27.400;2023-06-14T09:45:48;1.33;;;1.20;;
38302;SDS011;24103;42.454;27.400;2023-06-14T09:48:16;1.92;;;1.70;;
38302;SDS011;24103;42.454;27.400;2023-06-14T09:50:45;1.98;;;1.33;;
38302;SDS011;24103;42.454;27.400;2023-06-14T09:53:13;2.10;;;1.15;;
38302;SDS011;24103;42.454;27.400;2023-06-14T09:55:40;2.33;;;1.73;;
38302;SDS011;24103;42.454;27.400;2023-06-14T09:58:06;1.35;;;1.25;;
38302;SDS011;24103;42.454;27.400;2023-06-14T10:00:33;1.55;;;1.40;;
38302;SDS011;24103;42.454;27.400;2023-06-14T10:03:03;2.05;;;1.50;;
38302;SDS011;24103;42.454;27.400;2023-06-14T10:05:36;3.30;;;2.08;;
38302;SDS011;24103;42.454;27.400;2023-06-14T10:08:08;5.15;;;2.03;;
38302;SDS011;24103;42.454;27.400;2023-06-14T10:10:35;4.38;;;1.90;;
38302;SDS011;24103;42.454;27.400;2023-06-14T10:13:03;5.88;;;2.45;;
38302;SDS011;24103;42.454;27.400;2023-06-14T10:15:38;3.63;;;1.95;;
38302;SDS011;24103;42.454;27.400;2023-06-14T10:21:32;2.03;;;1.83;;
38302;SDS011;24103;42.454;27.400;2023-06-14T10:24:12;1.88;;;1.60;;
38302;SDS011;24103;42.454;27.400;2023-06-14T10:26:50;5.07;;;2.30;;
38302;SDS011;24103;42.454;27.400;2023-06-14T10:29:17;3.63;;;2.20;;
38302;SDS011;24103;42.454;27.400;2023-06-14T10:31:43;3.88;;;1.88;;
38302;SDS011;24103;42.454;27.400;2023-06-14T10:34:29;3.55;;;2.22;;
38302;SDS011;24103;42.454;27.400;2023-06-14T10:39:41;3.20;;;1.83;;
38302;SDS011;24103;42.454;27.400;2023-06-14T10:42:09;4.10;;;1.83;;
38302;SDS011;24103;42.454;27.400;2023-06-14T10:44:38;5.47;;;1.95;;
38302;SDS011;24103;42.454;27.400;2023-06-14T10:47:09;2.65;;;1.88;;
38302;SDS011;24103;42.454;27.400;2023-06-14T10:49:37;3.70;;;2.10;;
38302;SDS011;24103;42.454;27.400;2023-06-14T10:52:14;1.88;;;1.50;;
38302;SDS011;24103;42.454;27.400;2023-06-14T10:57:34;4.38;;;2.10;;
38302;SDS011;24103;42.454;27.400;2023-06-14T11:00:02;3.00;;;2.10;;
38302;SDS011;24103;42.454;27.400;2023-06-14T11:02:45;5.57;;;2.88;;
38302;SDS011;24103;42.454;27.400;2023-06-14T11:05:16;8.05;;;2.70;;
38302;SDS011;24103;42.454;27.400;2023-06-14T11:10:56;3.15;;;2.08;;
38302;SDS011;24103;42.454;27.400;2023-06-14T11:13:25;5.10;;;2.60;;
38302;SDS011;24103;42.454;27.400;2023-06-14T11:15:50;3.83;;;1.90;;
38302;SDS011;24103;42.454;27.400;2023-06-14T11:18:18;4.72;;;2.60;;
38302;SDS011;24103;42.454;27.400;2023-06-14T11:20:45;3.05;;;1.73;;
38302;SDS011;24103;42.454;27.400;2023-06-14T11:23:12;7.13;;;2.22;;
38302;SDS011;24103;42.454;27.400;2023-06-14T11:25:37;4.45;;;2.17;;
38302;SDS011;24103;42.454;27.400;2023-06-14T11:28:03;4.03;;;2.40;;
38302;SDS011;24103;42.454;27.400;2023-06-14T11:30:29;2.60;;;1.80;;
38302;SDS011;24103;42.454;27.400;2023-06-14T11:32:55;3.85;;;2.13;;
38302;SDS011;24103;42.454;27.400;2023-06-14T11:35:24;6.32;;;2.30;;
38302;SDS011;24103;42.454;27.400;2023-06-14T11:37:53;4.80;;;1.73;;
38302;SDS011;24103;42.454;27.400;2023-06-14T11:40:25;5.20;;;2.20;;
38302;SDS011;24103;42.454;27.400;2023-06-14T11:42:57;2.97;;;1.70;;
38302;SDS011;24103;42.454;27.400;2023-06-14T11:45:24;5.72;;;2.15;;
38302;SDS011;24103;42.454;27.400;2023-06-14T11:47:50;3.97;;;1.95;;
38302;SDS011;24103;42.454;27.400;2023-06-14T11:50:16;4.60;;;2.40;;
38302;SDS011;24103;42.454;27.400;2023-06-14T11:52:41;2.00;;;1.90;;
38302;SDS011;24103;42.454;27.400;2023-06-14T11:55:07;1.50;;;1.40;;
38302;SDS011;24103;42.454;27.400;2023-06-14T11:57:33;3.80;;;2.22;;
38302;SDS011;24103;42.454;27.400;2023-06-14T12:00:02;3.42;;;2.08;;
38302;SDS011;24103;42.454;27.400;2023-06-14T12:02:31;7.10;;;1.98;;
38302;SDS011;24103;42.454;27.400;2023-06-14T12:05:03;5.20;;;2.28;;
38302;SDS011;24103;42.454;27.400;2023-06-14T12:07:32;4.00;;;2.58;;
38302;SDS011;24103;42.454;27.400;2023-06-14T12:12:24;2.58;;;2.30;;
38302;SDS011;24103;42.454;27.400;2023-06-14T12:14:52;4.22;;;3.33;;
38302;SDS011;24103;42.454;27.400;2023-06-14T12:17:18;3.25;;;2.95;;
38302;SDS011;24103;42.454;27.400;2023-06-14T12:19:45;4.75;;;3.40;;
38302;SDS011;24103;42.454;27.400;2023-06-14T12:22:12;3.58;;;3.28;;
38302;SDS011;24103;42.454;27.400;2023-06-14T12:24:38;4.40;;;3.00;;
38302;SDS011;24103;42.454;27.400;2023-06-14T12:27:04;5.68;;;3.50;;
38302;SDS011;24103;42.454;27.400;2023-06-14T12:29:30;3.67;;;3.30;;
38302;SDS011;24103;42.454;27.400;2023-06-14T12:31:57;2.90;;;2.70;;
38302;SDS011;24103;42.454;27.400;2023-06-14T12:34:23;6.38;;;3.50;;
38302;SDS011;24103;42.454;27.400;2023-06-14T12:36:53;3.90;;;2.58;;
38302;SDS011;24103;42.454;27.400;2023-06-14T12:39:19;5.40;;;3.38;;
38302;SDS011;24103;42.454;27.400;2023-06-14T12:41:45;3.22;;;2.83;;
38302;SDS011;24103;42.454;27.400;2023-06-14T12:44:11;3.67;;;3.38;;
38302;SDS011;24103;42.454;27.400;2023-06-14T12:46:38;4.40;;;3.15;;
38302;SDS011;24103;42.454;27.400;2023-06-14T12:49:12;4.30;;;2.78;;
38302;SDS011;24103;42.454;27.400;2023-06-14T12:51:39;3.58;;;3.22;;
38302;SDS011;24103;42.454;27.400;2023-06-14T12:54:05;3.28;;;2.95;;
38302;SDS011;24103;42.454;27.400;2023-06-14T12:56:31;3.28;;;2.97;;
38302;SDS011;24103;42.454;27.400;2023-06-14T12:58:57;4.35;;;3.22;;
38302;SDS011;24103;42.454;27.400;2023-06-14T13:01:23;5.78;;;2.42;;
38302;SDS011;24103;42.454;27.400;2023-06-14T13:03:49;3.05;;;2.42;;
38302;SDS011;24103;42.454;27.400;2023-06-14T13:06:16;2.25;;;2.10;;
38302;SDS011;24103;42.454;27.400;2023-06-14T13:08:42;2.20;;;2.00;;
38302;SDS011;24103;42.454;27.400;2023-06-14T13:11:08;5.68;;;2.53;;
38302;SDS011;24103;42.454;27.400;2023-06-14T13:13:33;2.72;;;2.08;;
38302;SDS011;24103;42.454;27.400;2023-06-14T13:15:59;4.10;;;2.40;;
38302;SDS011;24103;42.454;27.400;2023-06-14T13:18:25;2.05;;;1.85;;
38302;SDS011;24103;42.454;27.400;2023-06-14T13:20:51;3.88;;;2.33;;
38302;SDS011;24103;42.454;27.400;2023-06-14T13:23:16;3.83;;;2.53;;
38302;SDS011;24103;42.454;27.400;2023-06-14T13:25:42;4.72;;;2.17;;
38302;SDS011;24103;42.454;27.400;2023-06-14T13:28:08;2.72;;;2.50;;
38302;SDS011;24103;42.454;27.400;2023-06-14T13:30:33;2.33;;;2.15;;
38302;SDS011;24103;42.454;27.400;2023-06-14T13:32:59;4.10;;;2.20;;
38302;SDS011;24103;42.454;27.400;2023-06-14T13:35:25;2.53;;;2.33;;
38302;SDS011;24103;42.454;27.400;2023-06-14T13:37:50;4.45;;;2.53;;
38302;SDS011;24103;42.454;27.400;2023-06-14T13:40:16;2.58;;;2.30;;
38302;SDS011;24103;42.454;27.400;2023-06-14T13:42:42;2.50;;;2.30;;
38302;SDS011;24103;42.454;27.400;2023-06-14T13:45:08;2.63;;;2.13;;
38302;SDS011;24103;42.454;27.400;2023-06-14T13:47:36;2.22;;;2.03;;
38302;SDS011;24103;42.454;27.400;2023-06-14T13:50:02;2.10;;;2.00;;
38302;SDS011;24103;42.454;27.400;2023-06-14T13:52:28;2.55;;;2.30;;
38302;SDS011;24103;42.454;27.400;2023-06-14T13:54:54;3.53;;;2.30;;
38302;SDS011;24103;42.454;27.400;2023-06-14T13:57:19;5.03;;;2.92;;
38302;SDS011;24103;42.454;27.400;2023-06-14T13:59:45;3.10;;;2.10;;
38302;SDS011;24103;42.454;27.400;2023-06-14T14:02:11;5.60;;;2.25;;
38302;SDS011;24103;42.454;27.400;2023-06-14T14:04:37;2.95;;;2.65;;
38302;SDS011;24103;42.454;27.400;2023-06-14T14:07:03;3.15;;;2.65;;
38302;SDS011;24103;42.454;27.400;2023-06-14T14:09:29;4.85;;;2.50;;
38302;SDS011;24103;42.454;27.400;2023-06-14T14:11:55;2.60;;;2.40;;
38302;SDS011;24103;42.454;27.400;2023-06-14T14:14:21;3.17;;;2.25;;
38302;SDS011;24103;42.454;27.400;2023-06-14T14:16:48;2.78;;;1.98;;
38302;SDS011;24103;42.454;27.400;2023-06-14T14:19:16;2.10;;;1.90;;
38302;SDS011;24103;42.454;27.400;2023-06-14T14:21:43;3.10;;;2.10;;
38302;SDS011;24103;42.454;27.400;2023-06-14T14:24:09;2.33;;;2.22;;
38302;SDS011;24103;42.454;27.400;2023-06-14T14:26:35;4.05;;;2.40;;
38302;SDS011;24103;42.454;27.400;2023-06-14T14:29:00;2.80;;;2.10;;
38302;SDS011;24103;42.454;27.400;2023-06-14T14:31:27;3.65;;;2.30;;
38302;SDS011;24103;42.454;27.400;2023-06-14T14:33:53;2.60;;;1.83;;
38302;SDS011;24103;42.454;27.400;2023-06-14T14:36:18;2.20;;;2.00;;
38302;SDS011;24103;42.454;27.400;2023-06-14T14:38:44;3.38;;;2.00;;
38302;SDS011;24103;42.454;27.400;2023-06-14T14:41:10;3.33;;;2.25;;
38302;SDS011;24103;42.454;27.400;2023-06-14T14:43:35;3.28;;;2.10;;
38302;SDS011;24103;42.454;27.400;2023-06-14T14:46:01;2.20;;;2.00;;
38302;SDS011;24103;42.454;27.400;2023-06-14T14:48:26;3.42;;;2.17;;
38302;SDS011;24103;42.454;27.400;2023-06-14T14:50:52;2.53;;;2.08;;